Time;durP1;ratioP1;P1;durP2;ratioP2;P2;SDS_P1;SDS_P2;PMS_P1;PMS_P2;Temp;Humidity;BMP_temperature;BMP_pressure;BME280_temperature;BME280_humidity;BME280_pressure;Samples;Min_cycle;Max_cycle;Signal;HPM_P1;HPM_P2
2022/02/26 00:00:40;;;;;;;43.80;8.52;;;;;;;2.10;100.00;101915.41;5009276;28;20018;-77
2022/02/26 00:03:06;;;;;;;38.40;5.43;;;;;;;2.09;100.00;101930.38;5026134;28;20545;-76
2022/02/26 00:05:32;;;;;;;31.30;7.00;;;;;;;2.02;100.00;101929.00;5010659;28;20033;-77
2022/02/26 00:07:57;;;;;;;39.75;6.35;;;;;;;2.00;100.00;101935.28;5026002;28;20515;-77
2022/02/26 00:10:22;;;;;;;41.57;6.60;;;;;;;1.99;100.00;101950.22;5010855;28;20480;-76
2022/02/26 00:12:48;;;;;;;42.20;6.15;;;;;;;1.98;100.00;101953.78;5010699;28;20053;-77
2022/02/26 00:15:13;;;;;;;43.30;9.57;;;;;;;1.98;100.00;101966.94;5025882;28;20107;-78
2022/02/26 00:17:39;;;;;;;41.07;6.33;;;;;;;1.96;100.00;101976.69;5010751;28;20510;-77
2022/02/26 00:20:06;;;;;;;44.85;9.35;;;;;;;1.97;100.00;101975.78;5025648;28;20280;-76
2022/02/26 00:22:32;;;;;;;43.83;9.13;;;;;;;1.87;100.00;101966.63;5009204;28;20030;-77
2022/02/26 00:24:57;;;;;;;31.48;6.50;;;;;;;1.82;100.00;101985.28;5010369;28;20034;-77
2022/02/26 00:27:23;;;;;;;37.25;7.18;;;;;;;1.77;100.00;101983.81;5025763;28;20080;-77
2022/02/26 00:29:48;;;;;;;33.20;6.27;;;;;;;1.76;100.00;101993.50;5010200;28;20109;-77
2022/02/26 00:32:13;;;;;;;40.25;7.47;;;;;;;1.81;100.00;101993.28;5027932;28;20674;-77
2022/02/26 00:34:39;;;;;;;39.80;5.88;;;;;;;1.65;100.00;101998.44;5012644;28;20034;-76
2022/02/26 00:37:05;;;;;;;31.73;6.57;;;;;;;1.67;100.00;102002.69;5029666;28;20050;-76
2022/02/26 00:39:31;;;;;;;60.08;6.63;;;;;;;1.59;100.00;102004.88;5029794;28;20057;-77
2022/02/26 00:41:56;;;;;;;;;;;;;;;1.67;100.00;102021.13;5014702;28;20029;-77
2022/02/26 00:44:22;;;;;;;45.22;6.78;;;;;;;1.64;100.00;102030.97;5013088;28;20409;-77
2022/02/26 00:46:47;;;;;;;42.33;7.73;;;;;;;1.64;100.00;102029.19;5029543;28;20037;-76
2022/02/26 00:51:57;;;;;;;55.25;9.73;;;;;;;1.60;100.00;102047.81;5013991;28;20045;-77
2022/02/26 00:54:23;;;;;;;33.72;7.60;;;;;;;1.57;100.00;102051.47;5029311;28;20041;-76
2022/02/26 00:56:49;;;;;;;30.83;6.68;;;;;;;1.55;100.00;102060.34;5012747;28;20042;-77
2022/02/26 00:59:14;;;;;;;42.45;7.75;;;;;;;1.51;100.00;102070.16;5029103;28;20025;-78
2022/02/26 01:01:40;;;;;;;27.00;7.37;;;;;;;1.57;100.00;102084.81;5014044;28;20037;-76
2022/02/26 01:04:06;;;;;;;44.22;7.20;;;;;;;1.50;100.00;102091.28;5028962;28;20364;-76
2022/02/26 01:06:33;;;;;;;41.13;7.78;;;;;;;1.36;100.00;102087.53;5013797;28;20040;-76
2022/02/26 01:08:58;;;;;;;;;;;;;;;1.39;100.00;102099.69;5012957;28;20487;-77
2022/02/26 01:11:23;;;;;;;52.35;8.48;;;;;;;1.43;100.00;102109.16;5013833;28;19924;-76
2022/02/26 01:13:49;;;;;;;41.67;7.23;;;;;;;1.39;100.00;102118.09;5028771;28;20034;-78
2022/02/26 01:16:14;;;;;;;23.27;6.53;;;;;;;1.37;100.00;102117.31;4996343;28;20088;-77
2022/02/26 01:18:39;;;;;;;42.53;9.73;;;;;;;1.35;100.00;102127.06;5011942;28;20120;-77
2022/02/26 01:21:05;;;;;;;31.50;6.83;;;;;;;1.29;100.00;102129.94;5013615;28;20280;-77
2022/02/26 01:23:30;;;;;;;41.00;7.73;;;;;;;1.20;100.00;102137.34;5028775;28;20033;-76
2022/02/26 01:25:55;;;;;;;41.88;6.55;;;;;;;1.30;100.00;102139.56;5012251;28;20116;-77
2022/02/26 01:28:21;;;;;;;37.17;8.23;;;;;;;1.23;100.00;102134.56;5028644;28;20188;-78
2022/02/26 01:30:47;;;;;;;46.43;7.97;;;;;;;1.25;100.00;102156.41;5011994;28;20763;-77
2022/02/26 01:33:14;;;;;;;41.80;7.75;;;;;;;1.22;100.00;102153.06;5011721;28;20275;-77
2022/02/26 01:35:39;;;;;;;52.22;6.43;;;;;;;1.10;100.00;102146.59;5028612;28;20034;-77
2022/02/26 01:38:05;;;;;;;36.38;8.40;;;;;;;1.17;100.00;102161.16;5012003;28;20390;-77
2022/02/26 01:40:30;;;;;;;59.45;8.05;;;;;;;1.15;100.00;102177.94;5028404;28;20037;-76
2022/02/26 01:42:56;;;;;;;38.25;5.75;;;;;;;1.12;100.00;102170.16;5011733;28;20033;-78
2022/02/26 01:45:23;;;;;;;63.13;9.80;;;;;;;1.05;100.00;102172.19;5011933;28;20038;-79
2022/02/26 01:47:48;;;;;;;35.75;6.45;;;;;;;1.08;100.00;102182.63;5011721;28;20132;-77
2022/02/26 01:50:15;;;;;;;43.60;7.18;;;;;;;1.09;100.00;102184.31;5012734;28;20116;-78
2022/02/26 01:52:41;;;;;;;54.42;8.68;;;;;;;0.98;100.00;102181.28;5011691;28;20036;-77
2022/02/26 01:55:08;;;;;;;42.33;7.32;;;;;;;1.01;100.00;102186.44;5028185;28;20037;-77
2022/02/26 01:57:33;;;;;;;51.03;7.43;;;;;;;0.99;100.00;102196.16;5013376;28;20041;-77
2022/02/26 01:59:59;;;;;;;48.80;7.70;;;;;;;0.97;100.00;102201.47;5015570;28;20045;-78
2022/02/26 02:02:24;;;;;;;42.08;6.25;;;;;;;0.94;100.00;102198.97;5017240;28;20028;-78
2022/02/26 02:04:50;;;;;;;37.75;6.70;;;;;;;0.98;100.00;102199.69;5017632;28;20096;-78
2022/02/26 02:07:16;;;;;;;45.53;8.90;;;;;;;0.95;100.00;102215.59;5032517;28;20113;-77
2022/02/26 02:09:43;;;;;;;50.33;9.40;;;;;;;0.96;100.00;102217.31;5015322;28;20399;-78
2022/02/26 02:12:09;;;;;;;55.17;8.98;;;;;;;1.02;100.00;102211.78;5032685;28;20518;-76
2022/02/26 02:14:35;;;;;;;35.30;7.25;;;;;;;0.97;100.00;102214.63;5015352;28;20029;-78
2022/02/26 02:17:02;;;;;;;43.53;6.53;;;;;;;0.89;100.00;102218.47;5016577;28;20033;-78
2022/02/26 02:19:27;;;;;;;30.77;6.55;;;;;;;0.94;100.00;102213.91;5031363;28;20041;-78
2022/02/26 02:21:52;;;;;;;42.78;6.57;;;;;;;0.95;100.00;102224.34;5032075;28;20021;-77
2022/02/26 02:24:18;;;;;;;39.33;8.52;;;;;;;0.91;100.00;102232.44;5031195;28;20503;-78
2022/02/26 02:26:45;;;;;;;37.40;7.50;;;;;;;0.80;100.00;102239.00;5016818;28;20493;-77
2022/02/26 02:29:11;;;;;;;36.47;7.82;;;;;;;0.83;100.00;102240.63;5015224;28;20044;-76
2022/02/26 02:31:36;;;;;;;;;;;;;;;0.74;100.00;102243.66;5032371;28;20098;-77
2022/02/26 02:34:03;;;;;;;42.65;7.88;;;;;;;0.71;100.00;102249.03;5013217;28;19964;-76
2022/02/26 02:36:28;;;;;;;36.22;6.25;;;;;;;0.65;100.00;102244.84;5014936;28;20029;-77
2022/02/26 02:38:54;;;;;;;47.00;6.13;;;;;;;0.53;100.00;102237.47;5036059;28;20052;-77
2022/02/26 02:41:19;;;;;;;46.90;7.63;;;;;;;0.45;100.00;102250.06;5050761;28;20272;-77
2022/02/26 02:43:45;;;;;;;33.50;6.55;;;;;;;0.32;100.00;102252.31;5036446;28;20088;-77
2022/02/26 02:46:11;;;;;;;34.63;6.72;;;;;;;0.18;100.00;102252.84;5051917;28;20090;-78
2022/02/26 02:48:38;;;;;;;43.38;7.05;;;;;;;0.12;100.00;102258.34;5036068;28;20033;-77
2022/02/26 02:51:05;;;;;;;31.70;5.10;;;;;;;0.07;100.00;102260.25;5051548;28;20021;-77
2022/02/26 02:53:31;;;;;;;52.33;6.22;;;;;;;-0.02;100.00;102272.84;5051240;28;20167;-78
2022/02/26 02:55:57;;;;;;;48.38;9.15;;;;;;;-0.09;100.00;102266.09;5034885;28;20060;-78
2022/02/26 02:58:25;;;;;;;37.42;5.63;;;;;;;0.02;100.00;102283.22;5036735;28;20044;-78
2022/02/26 03:00:50;;;;;;;39.13;6.32;;;;;;;-0.14;100.00;102289.06;5035711;28;20406;-78
2022/02/26 03:03:16;;;;;;;44.80;5.15;;;;;;;-0.16;100.00;102284.78;5034485;28;20040;-77
2022/02/26 03:05:42;;;;;;;55.10;7.25;;;;;;;-0.25;100.00;102299.06;5035982;28;20026;-78
2022/02/26 03:08:07;;;;;;;46.60;5.97;;;;;;;-0.27;100.00;102308.78;5051379;28;20510;-77
2022/02/26 03:10:33;;;;;;;40.30;6.72;;;;;;;-0.37;100.00;102307.38;5034578;28;20079;-78
2022/02/26 03:12:58;;;;;;;49.50;6.43;;;;;;;-0.29;100.00;102318.47;5033949;28;20088;-78
2022/02/26 03:15:24;;;;;;;45.42;7.30;;;;;;;-0.29;100.00;102331.59;5035532;28;20087;-77
2022/02/26 03:17:52;;;;;;;29.77;6.32;;;;;;;-0.19;100.00;102342.63;5034132;28;20045;-78
2022/02/26 03:20:18;;;;;;;48.88;6.82;;;;;;;-0.07;100.00;102339.53;5050448;28;20029;-77
2022/02/26 03:22:44;;;;;;;33.42;7.47;;;;;;;-0.11;100.00;102344.06;5034378;28;20051;-77
2022/02/26 03:25:10;;;;;;;;;;;;;;;-0.03;100.00;102360.38;5052176;28;20067;-76
2022/02/26 03:27:35;;;;;;;40.92;7.70;;;;;;;-0.15;100.00;102358.19;5034451;28;19913;-78
2022/02/26 03:30:01;;;;;;;37.92;7.32;;;;;;;-0.02;100.00;102374.41;5034111;28;20047;-78
2022/02/26 03:32:27;;;;;;;49.00;7.68;;;;;;;-0.02;100.00;102382.28;5032678;28;20068;-77
2022/02/26 03:34:52;;;;;;;49.05;9.48;;;;;;;-0.05;100.00;102383.25;5050147;28;20025;-77
2022/02/26 03:37:18;;;;;;;41.42;6.28;;;;;;;0.01;100.00;102397.91;5050773;28;20068;-78
2022/02/26 03:39:44;;;;;;;38.58;9.35;;;;;;;0.02;100.00;102390.88;5050367;28;20493;-78
2022/02/26 03:42:11;;;;;;;41.00;8.07;;;;;;;0.18;100.00;102407.81;5033603;28;20044;-78
2022/02/26 03:44:37;;;;;;;39.47;6.97;;;;;;;0.07;100.00;102410.84;5050851;28;20065;-78
2022/02/26 03:47:03;;;;;;;41.05;7.60;;;;;;;0.02;100.00;102409.28;5051530;28;20410;-78
2022/02/26 03:49:29;;;;;;;44.42;7.47;;;;;;;0.01;100.00;102418.06;5051522;28;20025;-78
2022/02/26 03:51:54;;;;;;;;;;;;;;;0.02;100.00;102411.91;5036818;28;20045;-76
2022/02/26 03:54:21;;;;;;;50.03;9.30;;;;;;;-0.11;100.00;102416.72;5036410;28;20281;-78
2022/02/26 03:56:46;;;;;;;;;;;;;;;-0.22;100.00;102419.72;5035908;28;20071;-78
2022/02/26 03:59:12;;;;;;;44.55;7.38;;;;;;;-0.25;100.00;102425.06;5033789;28;19944;-77
2022/02/26 04:01:37;;;;;;;44.00;7.60;;;;;;;-0.28;100.00;102433.91;5050676;28;20368;-77
2022/02/26 04:04:03;;;;;;;32.67;5.30;;;;;;;-0.36;100.00;102440.31;5051502;28;20079;-78
2022/02/26 04:06:29;;;;;;;43.05;8.75;;;;;;;-0.34;100.00;102439.34;5053065;28;20033;-77
2022/02/26 04:08:55;;;;;;;38.33;6.97;;;;;;;-0.37;100.00;102446.47;5055543;28;20036;-78
2022/02/26 04:11:20;;;;;;;41.05;6.75;;;;;;;-0.44;100.00;102454.53;5055582;28;20487;-78
2022/02/26 04:13:46;;;;;;;49.90;6.97;;;;;;;-0.40;100.00;102457.91;5039568;28;20479;-78
2022/02/26 04:16:12;;;;;;;46.75;7.82;;;;;;;-0.33;100.00;102455.94;5038004;28;20048;-77
2022/02/26 04:18:37;;;;;;;39.80;5.78;;;;;;;-0.44;100.00;102453.69;5054729;28;20486;-78
2022/02/26 04:21:03;;;;;;;32.25;5.05;;;;;;;-0.31;100.00;102459.38;5040194;28;20128;-78
2022/02/26 04:23:28;;;;;;;47.90;7.72;;;;;;;-0.26;100.00;102468.84;5039803;28;20122;-78
2022/02/26 04:25:53;;;;;;;35.67;4.80;;;;;;;-0.37;100.00;102464.84;5040399;28;20560;-77
2022/02/26 04:28:19;;;;;;;48.50;7.07;;;;;;;-0.41;100.00;102476.34;5053642;28;20259;-78
2022/02/26 04:30:45;;;;;;;32.92;8.32;;;;;;;-0.30;100.00;102484.75;5037254;28;20095;-77
2022/02/26 04:33:11;;;;;;;;;;;;;;;-0.34;100.00;102491.84;5049794;28;20026;-77
2022/02/26 04:35:36;;;;;;;48.13;5.18;;;;;;;-0.37;100.00;102496.34;5048779;28;20003;-77
2022/02/26 04:38:02;;;;;;;33.53;4.93;;;;;;;-0.44;100.00;102509.66;5033477;28;20029;-76
2022/02/26 04:40:28;;;;;;;39.17;6.55;;;;;;;-0.44;100.00;102509.66;5048904;28;20091;-76
2022/02/26 04:42:54;;;;;;;41.53;5.60;;;;;;;-0.52;100.00;102508.16;5048609;28;20021;-77
2022/02/26 04:45:19;;;;;;;22.25;4.50;;;;;;;-0.47;100.00;102504.50;5048714;28;20045;-77
2022/02/26 04:47:44;;;;;;;29.67;4.55;;;;;;;-0.57;100.00;102508.31;5015802;28;20030;-78
2022/02/26 04:50:12;;;;;;;39.15;4.85;;;;;;;-0.53;100.00;102528.31;5032111;28;20463;-76
2022/02/26 04:52:38;;;;;;;26.25;4.60;;;;;;;-0.63;100.00;102529.50;5033309;28;20113;-76
2022/02/26 04:55:04;;;;;;;24.58;4.50;;;;;;;-0.58;100.00;102538.09;5031984;28;20120;-77
2022/02/26 04:57:30;;;;;;;38.70;6.95;;;;;;;-0.65;100.00;102539.19;5048549;28;20466;-77
2022/02/26 04:59:55;;;;;;;23.13;5.43;;;;;;;-0.69;100.00;102537.53;5033163;28;20495;-77
2022/02/26 05:02:21;;;;;;;25.63;4.63;;;;;;;-0.60;100.00;102553.00;5031820;28;20112;-78
2022/02/26 05:04:47;;;;;;;42.28;5.72;;;;;;;-0.50;100.00;102553.59;5033305;28;20037;-76
2022/02/26 05:07:13;;;;;;;31.00;5.00;;;;;;;-0.61;100.00;102555.66;5033242;28;20029;-76
2022/02/26 05:09:38;;;;;;;;;;;;;;;-0.67;100.00;102560.19;5049378;28;20041;-77
2022/02/26 05:12:05;;;;;;;42.30;6.32;;;;;;;-0.61;100.00;102560.91;5032761;28;19920;-78
2022/02/26 05:14:30;;;;;;;;;;;;;;;-0.63;100.00;102563.59;5048705;28;20079;-76
2022/02/26 05:16:56;;;;;;;45.40;5.63;;;;;;;-0.82;100.00;102557.16;5031187;28;20015;-76
2022/02/26 05:19:21;;;;;;;28.90;6.55;;;;;;;-0.90;100.00;102560.88;5031276;28;20036;-78
2022/02/26 05:21:47;;;;;;;38.78;5.57;;;;;;;-0.94;100.00;102561.84;5048362;28;20033;-76
2022/02/26 05:24:12;;;;;;;30.80;6.45;;;;;;;-0.96;100.00;102570.66;5031261;28;20544;-77
2022/02/26 05:26:37;;;;;;;35.77;5.20;;;;;;;-1.00;100.00;102574.31;5031745;28;20029;-78
2022/02/26 05:29:03;;;;;;;32.40;5.30;;;;;;;-1.08;100.00;102570.13;5032297;28;20319;-76
2022/02/26 05:31:28;;;;;;;22.17;4.93;;;;;;;-1.02;100.00;102578.72;5048025;28;20292;-78
2022/02/26 05:33:54;;;;;;;31.45;6.03;;;;;;;-1.02;100.00;102592.69;5032514;28;20034;-79
2022/02/26 05:36:19;;;;;;;34.20;5.70;;;;;;;-1.08;100.00;102585.88;5032947;28;20120;-78
2022/02/26 05:38:45;;;;;;;24.17;4.10;;;;;;;-1.16;100.00;102577.34;5030931;28;20037;-77
2022/02/26 05:41:10;;;;;;;30.95;4.78;;;;;;;-1.16;100.00;102605.31;5032261;28;20083;-78
2022/02/26 05:43:36;;;;;;;39.55;4.68;;;;;;;-1.09;100.00;102612.13;5047647;28;20033;-78
2022/02/26 05:46:01;;;;;;;45.00;5.70;;;;;;;-1.09;100.00;102607.72;5047727;28;20025;-78
2022/02/26 05:48:28;;;;;;;35.50;5.57;;;;;;;-1.09;100.00;102617.34;5032481;28;20415;-78
2022/02/26 05:50:53;;;;;;;34.72;5.40;;;;;;;-1.00;100.00;102622.34;5025477;28;20026;-78
2022/02/26 05:53:19;;;;;;;30.33;6.27;;;;;;;-1.08;100.00;102627.81;5027448;28;20038;-78
2022/02/26 05:55:44;;;;;;;31.58;4.80;;;;;;;-0.97;100.00;102640.59;5012004;28;20272;-78
2022/02/26 05:58:09;;;;;;;22.98;4.80;;;;;;;-0.88;100.00;102642.97;5027538;28;20050;-78
2022/02/26 06:00:35;;;;;;;32.97;6.80;;;;;;;-0.91;100.00;102653.56;5012047;28;20026;-78
2022/02/26 06:03:00;;;;;;;34.97;4.68;;;;;;;-0.90;100.00;102662.28;5012424;28;20037;-77
2022/02/26 06:05:26;;;;;;;34.92;4.40;;;;;;;-0.83;100.00;102669.09;5010789;28;20093;-77
2022/02/26 06:07:51;;;;;;;29.67;4.65;;;;;;;-0.80;100.00;102671.63;5010895;28;20033;-77
2022/02/26 06:10:16;;;;;;;34.33;4.72;;;;;;;-0.89;100.00;102669.25;5026863;28;20523;-77
2022/02/26 06:12:42;;;;;;;46.65;6.28;;;;;;;-0.91;100.00;102671.91;5011006;28;20034;-77
2022/02/26 06:15:08;;;;;;;65.97;7.83;;;;;;;-0.91;100.00;102664.06;5027157;28;20518;-77
2022/02/26 06:17:36;;;;;;;31.40;6.63;;;;;;;-0.83;100.00;102681.34;5010108;28;20319;-76
2022/02/26 06:20:02;;;;;;;37.70;6.50;;;;;;;-0.75;100.00;102687.22;5026941;28;20034;-77
2022/02/26 06:22:27;;;;;;;;;;;;;;;-0.74;100.00;102686.34;5027493;28;20395;-77
2022/02/26 06:24:52;;;;;;;40.80;6.03;;;;;;;-0.79;100.00;102675.13;5027056;28;19916;-77
2022/02/26 06:27:18;;;;;;;50.30;7.80;;;;;;;-0.72;100.00;102695.88;5026635;28;20510;-78
2022/02/26 06:29:43;;;;;;;30.55;5.55;;;;;;;-0.61;100.00;102697.34;5010883;28;20305;-77
2022/02/26 06:32:09;;;;;;;33.13;5.72;;;;;;;-0.62;100.00;102706.13;5011899;28;20073;-77
2022/02/26 06:34:34;;;;;;;31.33;7.10;;;;;;;-0.56;100.00;102709.44;5011786;28;20034;-76
2022/02/26 06:36:59;;;;;;;23.73;4.25;;;;;;;-0.47;100.00;102714.44;5010259;28;20073;-77
2022/02/26 06:39:25;;;;;;;37.78;5.70;;;;;;;-0.52;100.00;102697.09;5011427;28;20030;-77
2022/02/26 06:41:50;;;;;;;37.45;7.10;;;;;;;-0.44;100.00;102708.25;5011545;28;20037;-77
2022/02/26 06:44:16;;;;;;;24.30;5.13;;;;;;;-0.42;100.00;102716.94;5010296;28;20040;-76
2022/02/26 06:46:43;;;;;;;38.15;5.38;;;;;;;-0.36;100.00;102710.63;5026759;28;20284;-76
2022/02/26 06:49:09;;;;;;;30.73;4.68;;;;;;;-0.16;100.00;102729.31;5026386;28;20076;-75
2022/02/26 06:51:34;;;;;;;16.80;4.40;;;;;;;-0.13;100.00;102725.72;5011394;28;20391;-77
2022/02/26 06:54:00;;;;;;;36.25;6.55;;;;;;;-0.12;100.00;102728.28;5011024;28;20034;-76
2022/02/26 06:56:26;;;;;;;35.88;5.10;;;;;;;-0.12;100.00;102724.81;5026691;28;20611;-76
2022/02/26 06:58:53;;;;;;;39.50;5.20;;;;;;;-0.14;100.00;102724.88;5026430;28;20395;-75
2022/02/26 07:01:21;;;;;;;31.73;5.63;;;;;;;-0.12;100.00;102715.16;5009458;28;20124;-76
2022/02/26 07:03:47;;;;;;;33.55;4.90;;;;;;;-0.07;100.00;102718.53;5011145;28;20034;-76
2022/02/26 07:06:12;;;;;;;21.30;4.88;;;;;;;0.23;100.00;102731.63;5026898;28;20042;-76
2022/02/26 07:08:38;;;;;;;36.78;5.70;;;;;;;0.42;100.00;102734.53;5026242;28;20055;-76
2022/02/26 07:11:03;;;;;;;29.65;4.82;;;;;;;0.75;100.00;102744.88;5011860;28;20337;-78
2022/02/26 07:13:29;;;;;;;35.90;5.78;;;;;;;0.92;100.00;102742.56;5028113;28;20555;-76
2022/02/26 07:15:55;;;;;;;22.65;5.88;;;;;;;1.20;100.00;102744.28;5010058;28;20706;-76
2022/02/26 07:18:21;;;;;;;33.95;4.28;;;;;;;1.22;100.00;102738.03;5010094;28;20168;-77
2022/02/26 07:20:46;;;;;;;29.67;5.20;;;;;;;1.48;100.00;102731.84;5009812;28;20638;-76
2022/02/26 07:23:12;;;;;;;30.00;4.70;;;;;;;1.76;100.00;102732.63;5026585;28;20022;-76
2022/02/26 07:25:37;;;;;;;33.30;4.77;;;;;;;2.05;100.00;102748.19;5026247;28;20398;-77
2022/02/26 07:28:03;;;;;;;27.52;6.18;;;;;;;2.18;100.00;102745.97;5011073;28;20057;-76
2022/02/26 07:30:29;;;;;;;34.55;7.22;;;;;;;2.36;100.00;102738.25;5009585;28;20044;-77
2022/02/26 07:32:54;;;;;;;28.55;4.65;;;;;;;2.60;100.00;102747.81;5026150;28;20387;-76
2022/02/26 07:35:20;;;;;;;33.33;5.20;;;;;;;2.65;100.00;102731.81;5009687;28;20041;-76
2022/02/26 07:37:45;;;;;;;24.33;8.57;;;;;;;3.27;100.00;102738.84;5025951;28;20084;-77
2022/02/26 07:40:12;;;;;;;28.43;5.23;;;;;;;3.55;100.00;102729.72;5026521;28;20148;-75
2022/02/26 07:42:38;;;;;;;23.58;3.90;;;;;;;4.10;100.00;102735.13;5030084;28;20741;-76
2022/02/26 07:45:05;;;;;;;27.42;6.47;;;;;;;4.48;100.00;102724.53;4997276;28;20038;-77
2022/02/26 07:47:32;;;;;;;25.00;4.38;;;;;;;4.82;100.00;102704.31;5015047;28;20026;-76
2022/02/26 07:49:57;;;;;;;25.58;4.82;;;;;;;4.84;100.00;102673.34;5013332;28;20078;-77
2022/02/26 07:52:23;;;;;;;19.05;3.25;;;;;;;4.93;100.00;102640.25;5014651;28;20152;-76
2022/02/26 07:54:51;;;;;;;22.70;5.50;;;;;;;5.50;100.00;102614.25;5029658;28;20096;-77
2022/02/26 07:57:17;;;;;;;22.23;4.63;;;;;;;5.83;100.00;102570.91;5014532;28;20084;-76
2022/02/26 07:59:43;;;;;;;17.38;3.97;;;;;;;5.75;93.96;102497.13;5014336;28;20037;-77
2022/02/26 08:02:08;;;;;;;25.25;4.15;;;;;;;6.02;90.03;102440.84;5014833;28;20401;-76
2022/02/26 08:04:34;;;;;;;23.57;4.70;;;;;;;5.80;86.90;102362.53;5029567;28;20117;-77
2022/02/26 08:06:59;;;;;;;24.10;4.20;;;;;;;6.03;84.06;102309.97;5029732;28;20084;-76
2022/02/26 08:09:25;;;;;;;22.73;3.57;;;;;;;6.76;82.59;102320.38;5012787;28;20041;-77
2022/02/26 08:11:51;;;;;;;24.15;4.75;;;;;;;7.20;79.99;102271.47;5029572;28;20037;-76
2022/02/26 08:14:17;;;;;;;17.00;4.27;;;;;;;7.58;77.99;102236.94;5012756;28;20033;-76
2022/02/26 08:16:42;;;;;;;27.77;5.70;;;;;;;7.40;75.56;102131.94;5029445;28;20060;-76
2022/02/26 08:19:07;;;;;;;22.03;5.57;;;;;;;8.19;74.66;102183.88;5012602;28;20092;-77
2022/02/26 08:21:34;;;;;;;34.33;4.90;;;;;;;7.63;72.37;102025.78;5029220;28;20084;-76
2022/02/26 08:24:00;;;;;;;23.83;4.75;;;;;;;8.05;72.60;102125.50;5013859;28;20132;-77
2022/02/26 08:26:25;;;;;;;20.83;3.33;;;;;;;8.62;71.58;102131.97;5014287;28;20109;-76
2022/02/26 08:28:51;;;;;;;19.73;3.83;;;;;;;8.66;69.28;102013.59;5013589;28;20041;-77
2022/02/26 08:31:16;;;;;;;23.17;5.37;;;;;;;8.84;68.62;102044.13;5029308;28;20057;-77
2022/02/26 08:33:41;;;;;;;32.93;7.43;;;;;;;9.57;66.47;101987.75;5012581;28;20022;-77
2022/02/26 08:36:07;;;;;;;23.93;4.23;;;;;;;9.50;65.17;101926.09;5013355;28;20091;-77
2022/02/26 08:38:32;;;;;;;26.83;5.77;;;;;;;9.90;64.41;101962.78;5012958;28;20566;-77
2022/02/26 08:40:58;;;;;;;19.87;5.13;;;;;;;10.22;62.87;101897.84;5011478;28;20108;-77
2022/02/26 08:43:25;;;;;;;26.70;4.70;;;;;;;9.38;62.50;101777.84;5012966;28;20287;-77
2022/02/26 08:45:51;;;;;;;24.37;5.17;;;;;;;9.89;62.51;101873.06;5012438;28;20124;-77
2022/02/26 08:48:16;;;;;;;22.08;5.78;;;;;;;10.28;61.60;101865.28;5026736;28;20387;-76
2022/02/26 08:50:42;;;;;;;20.87;5.30;;;;;;;10.38;60.74;101823.50;5012802;28;20033;-77
2022/02/26 08:53:07;;;;;;;21.85;4.97;;;;;;;10.56;60.78;101837.88;5011949;28;20448;-77
2022/02/26 08:55:32;;;;;;;13.70;4.83;;;;;;;10.83;60.08;101864.94;5029354;28;20026;-77
2022/02/26 08:57:58;;;;;;;20.27;4.83;;;;;;;10.75;59.58;101798.88;5029172;28;20276;-77
2022/02/26 09:00:23;;;;;;;32.00;6.13;;;;;;;11.17;59.08;101799.44;5029218;28;20057;-77
2022/02/26 09:02:49;;;;;;;19.20;4.60;;;;;;;10.31;58.82;101668.38;5028947;28;20538;-77
2022/02/26 09:05:14;;;;;;;21.30;4.80;;;;;;;10.06;60.30;101788.91;5012160;28;20025;-77
2022/02/26 09:07:40;;;;;;;29.10;4.93;;;;;;;10.99;59.11;101868.78;5013370;28;20045;-77
2022/02/26 09:10:06;;;;;;;18.80;4.93;;;;;;;11.38;58.24;101836.75;5028678;28;20304;-76
2022/02/26 09:12:32;;;;;;;50.72;6.90;;;;;;;10.86;58.17;101715.06;5013217;28;20077;-77
2022/02/26 09:14:57;;;;;;;17.37;5.90;;;;;;;10.57;57.88;101652.66;5028616;28;20026;-76
2022/02/26 09:17:24;;;;;;;27.57;6.13;;;;;;;10.55;58.98;101748.06;5028575;28;20492;-77
2022/02/26 09:19:49;;;;;;;19.77;6.10;;;;;;;11.02;58.27;101816.88;5028310;28;20030;-76
2022/02/26 09:22:15;;;;;;;27.23;5.10;;;;;;;11.18;57.38;101736.16;5011954;28;20040;-77
2022/02/26 09:24:40;;;;;;;23.13;4.80;;;;;;;10.86;58.44;101833.44;5011923;28;20036;-77
2022/02/26 09:27:06;;;;;;;23.83;4.40;;;;;;;10.66;57.60;101695.53;5028263;28;20124;-77
2022/02/26 09:29:31;;;;;;;27.33;4.68;;;;;;;11.63;56.81;101810.38;5028511;28;20383;-77
2022/02/26 09:31:57;;;;;;;26.97;4.80;;;;;;;11.81;56.33;101776.53;5028144;28;20053;-77
2022/02/26 09:34:23;;;;;;;22.30;6.10;;;;;;;11.58;56.86;101807.28;5013048;28;20064;-78
2022/02/26 09:36:50;;;;;;;26.40;7.00;;;;;;;11.84;56.89;101842.31;5011636;28;20037;-77
2022/02/26 09:39:17;;;;;;;35.63;7.45;;;;;;;12.01;55.44;101712.28;5027782;28;20022;-77
2022/02/26 09:41:43;;;;;;;28.30;7.30;;;;;;;11.98;56.66;101815.13;5027921;28;20025;-77
2022/02/26 09:44:09;;;;;;;21.35;6.60;;;;;;;11.34;56.47;101672.25;5027912;28;20509;-77
2022/02/26 09:46:36;;;;;;;20.10;6.53;;;;;;;11.59;56.96;101799.13;5012681;28;20510;-77
2022/02/26 09:49:02;;;;;;;22.58;6.00;;;;;;;11.82;57.21;101845.16;5027815;28;20030;-76
2022/02/26 09:51:27;;;;;;;26.10;8.23;;;;;;;11.69;56.79;101763.50;5028111;28;20048;-77
2022/02/26 09:53:54;;;;;;;23.47;9.30;;;;;;;12.20;55.60;101781.81;5044730;23;20076;-76
2022/02/26 09:56:22;;;;;;;32.35;6.95;;;;;;;12.43;55.39;101784.06;5045685;28;20047;-76
2022/02/26 09:58:49;;;;;;;28.77;8.18;;;;;;;12.33;54.15;101663.63;5072110;28;20021;-76
2022/02/26 10:01:14;;;;;;;26.17;7.00;;;;;;;12.51;54.44;101724.41;5071849;28;20032;-76
2022/02/26 10:03:40;;;;;;;21.83;6.78;;;;;;;12.78;53.78;101712.78;5052869;28;20031;-77
2022/02/26 10:06:17;;;;;;;25.95;6.95;;;;;;;12.41;53.55;101599.44;5054007;28;20401;-76
2022/02/26 10:08:45;;;;;;;20.10;7.13;;;;;;;12.28;54.12;101627.59;5071327;28;20028;-76
2022/02/26 10:11:24;;;;;;;30.50;9.25;;;;;;;12.51;54.27;101684.22;5053766;28;20237;-76
2022/02/26 10:13:56;;;;;;;26.95;10.52;;;;;;;12.95;53.47;101703.91;5071352;28;20064;-76
2022/02/26 10:17:01;;;;;;;46.13;14.32;;;;;;;12.99;53.02;101673.09;5071568;28;20033;-76
2022/02/26 10:19:32;;;;;;;44.45;18.67;;;;;;;12.67;53.23;101618.25;5036504;28;20131;-76
2022/02/26 10:22:05;;;;;;;57.17;23.08;;;;;;;12.50;53.48;101626.28;5053440;28;20130;-76
2022/02/26 10:24:31;;;;;;;53.58;21.88;;;;;;;12.61;53.63;101653.69;5053324;28;20032;-76
2022/02/26 10:27:05;;;;;;;38.15;15.35;;;;;;;12.47;52.68;101525.66;5053294;28;20024;-76
2022/02/26 10:29:39;;;;;;;31.13;11.93;;;;;;;11.82;53.92;101534.78;5053215;28;20048;-76
2022/02/26 10:32:06;;;;;;;28.58;10.75;;;;;;;12.04;55.09;101731.56;5053141;28;20032;-76
2022/02/26 10:34:36;;;;;;;26.00;9.73;;;;;;;12.53;53.74;101658.13;5053147;28;20033;-76
2022/02/26 10:37:05;;;;;;;22.13;7.25;;;;;;;12.28;53.44;101584.75;5071225;28;20101;-76
2022/02/26 10:39:44;;;;;;;26.08;8.07;;;;;;;12.85;52.45;101612.88;5052893;28;20496;-76
2022/02/26 10:42:17;;;;;;;25.77;7.45;;;;;;;12.16;53.07;101566.25;5036815;28;20028;-76
2022/02/26 10:44:42;;;;;;;22.83;6.15;;;;;;;11.76;54.43;101615.63;5071296;28;20409;-76
2022/02/26 10:47:15;;;;;;;16.57;4.60;;;;;;;11.81;53.37;101529.56;5071370;28;20028;-76
2022/02/26 10:49:45;;;;;;;15.07;4.03;;;;;;;11.44;54.83;101640.13;5070748;28;20040;-76
2022/02/26 10:52:13;;;;;;;13.57;2.88;;;;;;;12.96;52.84;101752.97;5036113;28;20037;-76
2022/02/26 10:54:39;;;;;;;15.88;2.95;;;;;;;12.78;51.41;101523.38;5052791;28;20111;-76
2022/02/26 10:57:06;;;;;;;19.85;4.18;;;;;;;13.41;51.73;101731.41;5053064;28;20063;-76
2022/02/26 10:59:35;;;;;;;15.80;6.03;;;;;;;13.19;51.23;101608.56;5052680;28;20115;-76
2022/02/26 11:02:12;;;;;;;13.48;2.97;;;;;;;13.36;50.71;101575.47;5070946;28;20466;-76
2022/02/26 11:04:38;;;;;;;12.35;3.25;;;;;;;13.67;50.35;101588.34;5052445;28;20485;-76
2022/02/26 11:07:05;;;;;;;14.38;3.47;;;;;;;14.32;49.43;101623.41;5052863;28;20307;-76
2022/02/26 11:09:31;;;;;;;14.45;3.53;;;;;;;14.85;49.18;101658.09;5052414;28;20037;-76
2022/02/26 11:11:59;;;;;;;14.07;2.58;;;;;;;14.34;48.52;101492.47;5071036;28;20450;-76
2022/02/26 11:14:26;;;;;;;17.08;2.90;;;;;;;14.46;48.40;101497.50;5052332;28;20045;-76